createdAt,value
2017-02-02T00:00:03.378Z,99.99
2017-02-02T00:05:03.427Z,99.99
2017-02-02T00:10:03.078Z,99.99
2017-02-02T00:15:03.534Z,99.99
2017-02-02T00:20:02.823Z,99.99
2017-02-02T00:25:03.389Z,99.99
2017-02-02T00:30:02.750Z,99.73
2017-02-02T00:35:03.317Z,99.06
2017-02-02T00:40:02.997Z,98.3
2017-02-02T00:45:03.582Z,97.92
2017-02-02T00:50:03.034Z,96.97
2017-02-02T00:55:03.506Z,96.22
2017-02-02T01:00:03.199Z,96.12
2017-02-02T01:05:03.459Z,95.93
2017-02-02T01:10:02.778Z,96.03
2017-02-02T01:15:03.511Z,95.93
2017-02-02T01:20:02.718Z,95.55
2017-02-02T01:25:03.147Z,94.79
2017-02-02T01:30:03.681Z,95.17
2017-02-02T01:35:03.008Z,94.23
2017-02-02T01:40:03.493Z,93.94
2017-02-02T01:45:03.032Z,93.75
2017-02-02T01:50:03.518Z,93.37
2017-02-02T01:55:02.699Z,93.27
2017-02-02T02:00:02.964Z,92.9
2017-02-02T02:05:02.920Z,92.9
2017-02-02T02:10:03.365Z,92.52
2017-02-02T02:15:03.667Z,92.14
2017-02-02T02:20:03.941Z,91.66
2017-02-02T02:25:03.520Z,91.38
2017-02-02T02:30:02.739Z,91.85
2017-02-02T02:35:03.187Z,91.56
2017-02-02T02:40:02.871Z,91.09
2017-02-02T02:45:03.306Z,91.19
2017-02-02T02:50:03.635Z,90.43
2017-02-02T02:55:03.176Z,90.71
2017-02-02T03:00:03.563Z,90.24
2017-02-02T03:05:02.936Z,90.71
2017-02-02T03:10:03.433Z,90.62
2017-02-02T03:15:03.288Z,90.71
2017-02-02T03:20:02.972Z,90.62
2017-02-02T03:25:03.433Z,90.62
2017-02-02T03:30:03.013Z,90.62
2017-02-02T03:35:02.704Z,91
2017-02-02T03:40:03.228Z,90.81
2017-02-02T03:45:02.679Z,89.67
2017-02-02T03:50:03.275Z,89.86
2017-02-02T03:55:02.777Z,89.58
2017-02-02T04:00:03.085Z,89.39
2017-02-02T04:05:03.547Z,88.1
2017-02-02T04:10:03.177Z,87.92
2017-02-02T04:15:02.668Z,87.73
2017-02-02T04:20:02.978Z,86.78
2017-02-02T04:25:03.489Z,86.49
2017-02-02T04:30:03.027Z,86.4
2017-02-02T04:35:03.457Z,86.49
2017-02-02T04:40:02.945Z,86.78
2017-02-02T04:45:03.608Z,86.87
2017-02-02T04:50:03.373Z,87.35
2017-02-02T04:55:02.756Z,86.97
2017-02-02T05:00:03.387Z,86.49
2017-02-02T05:05:03.272Z,86.21
2017-02-02T05:10:02.687Z,85.74
2017-02-02T05:15:03.008Z,85.36
2017-02-02T05:20:03.232Z,84.88
2017-02-02T05:25:02.999Z,84.98
2017-02-02T05:30:02.790Z,85.17
2017-02-02T05:35:03.264Z,85.17
2017-02-02T05:40:02.818Z,84.69
2017-02-02T05:45:03.167Z,84.78
2017-02-02T05:50:03.054Z,84.22
2017-02-02T05:55:03.629Z,83.55
2017-02-02T06:00:03.005Z,83.65
2017-02-02T06:05:03.247Z,83.46
2017-02-02T06:10:03.506Z,83.17
2017-02-02T06:15:02.869Z,82.7
2017-02-02T06:20:03.239Z,82.51
2017-02-02T06:25:03.502Z,82.04
2017-02-02T06:30:02.931Z,81.66
2017-02-02T06:35:03.361Z,81.37
2017-02-02T06:40:03.591Z,81.56
2017-02-02T06:45:02.887Z,81.47
2017-02-02T06:50:03.298Z,81.66
2017-02-02T06:55:03.022Z,81.37
2017-02-02T07:00:03.478Z,81.37
2017-02-02T07:05:02.990Z,81.27
2017-02-02T07:10:03.364Z,81.37
2017-02-02T07:15:02.862Z,81.27
2017-02-02T07:20:03.282Z,81.37
2017-02-02T07:25:02.865Z,81.56
2017-02-02T07:30:03.673Z,81.66
2017-02-02T07:35:03.263Z,81.56
2017-02-02T07:40:02.766Z,81.6
2017-02-02T07:45:03.156Z,81.6
2017-02-02T07:50:03.602Z,81.79
2017-02-02T07:55:03.201Z,84.01
2017-02-02T08:00:02.865Z,85.44
2017-02-02T08:05:03.215Z,90.95
2017-02-02T08:10:03.609Z,96.6
2017-02-02T08:15:03.096Z,99.35
2017-02-02T08:20:02.766Z,99.73
2017-02-02T08:25:03.422Z,99.99
2017-02-02T08:30:03.108Z,99.99
2017-02-02T08:35:03.013Z,99.99
2017-02-02T08:40:03.326Z,99.99
2017-02-02T08:45:03.373Z,99.99
2017-02-02T08:50:03.471Z,99.99
2017-02-02T08:55:03.342Z,99.99
2017-02-02T09:00:03.349Z,99.99
2017-02-02T09:05:03.516Z,99.99
2017-02-02T09:10:03.801Z,99.99
2017-02-02T09:15:03.744Z,99.99
2017-02-02T09:20:03.720Z,99.99
2017-02-02T09:25:03.728Z,99.99
2017-02-02T09:30:03.611Z,99.99
2017-02-02T09:35:03.750Z,99.99
2017-02-02T09:40:03.811Z,99.99
2017-02-02T09:45:03.582Z,99.99
2017-02-02T09:50:03.366Z,99.99
2017-02-02T09:55:03.335Z,99.99
2017-02-02T10:00:03.481Z,99.99
2017-02-02T10:05:03.649Z,99.99
2017-02-02T10:10:03.423Z,99.99
2017-02-02T10:15:03.585Z,99.99
2017-02-02T10:20:03.828Z,99.99
2017-02-02T10:25:03.953Z,99.99
2017-02-02T10:30:03.830Z,99.99
2017-02-02T10:35:04.071Z,99.99
2017-02-02T10:40:03.335Z,99.99
2017-02-02T10:45:03.332Z,99.99
2017-02-02T10:50:02.774Z,99.99
2017-02-02T10:55:03.320Z,99.99
2017-02-02T11:00:03.080Z,99.99
2017-02-02T11:05:02.817Z,99.99
2017-02-02T11:10:03.123Z,99.99
2017-02-02T11:15:03.676Z,99.99
2017-02-02T11:20:03.538Z,99.99
2017-02-02T11:25:02.994Z,99.99
2017-02-02T11:30:03.382Z,99.99
2017-02-02T11:35:02.838Z,99.99
2017-02-02T11:40:02.966Z,99.99
2017-02-02T11:45:02.762Z,99.99
2017-02-02T11:50:03.285Z,99.99
2017-02-02T11:55:02.947Z,99.99
2017-02-02T12:00:03.136Z,99.99
2017-02-02T12:05:03.453Z,99.99
2017-02-02T12:10:02.986Z,99.99
2017-02-02T12:15:03.732Z,99.99
2017-02-02T12:20:03.480Z,99.99
2017-02-02T12:25:02.832Z,99.99
2017-02-02T12:30:03.322Z,99.99
2017-02-02T12:35:02.881Z,99.99
2017-02-02T12:40:03.089Z,99.99
2017-02-02T12:45:03.612Z,99.99
2017-02-02T12:50:03.370Z,99.99
2017-02-02T12:55:02.784Z,99.99
2017-02-02T13:00:03.276Z,99.99
2017-02-02T13:05:02.769Z,99.99
2017-02-02T13:10:03.522Z,99.99
2017-02-02T13:15:02.951Z,99.99
2017-02-02T13:20:03.488Z,99.99
2017-02-02T13:25:03.197Z,99.99
2017-02-02T13:30:02.844Z,99.99
2017-02-02T13:35:03.343Z,99.99
2017-02-02T13:40:02.946Z,99.99
2017-02-02T13:45:02.633Z,99.99
2017-02-02T13:50:02.928Z,99.99
2017-02-02T13:55:03.410Z,99.99
2017-02-02T14:00:03.278Z,99.99
2017-02-02T14:05:02.855Z,99.99
2017-02-02T14:10:03.388Z,99.99
2017-02-02T14:15:02.959Z,99.99
2017-02-02T14:20:03.331Z,99.99
2017-02-02T14:25:02.703Z,99.99
2017-02-02T14:30:03.398Z,99.99
2017-02-02T14:35:03.174Z,99.99
2017-02-02T14:40:03.496Z,99.99
2017-02-02T14:45:02.934Z,99.99
2017-02-02T14:50:02.677Z,99.99
2017-02-02T14:55:03.160Z,99.99
2017-02-02T15:00:03.488Z,99.99
2017-02-02T15:05:03.144Z,99.99
2017-02-02T15:10:02.731Z,99.99
2017-02-02T15:15:03.114Z,99.99
2017-02-02T15:20:03.667Z,99.99
2017-02-02T15:25:03.303Z,99.99
2017-02-02T15:30:02.877Z,99.99
2017-02-02T15:35:03.479Z,99.99
2017-02-02T15:40:03.121Z,99.99
2017-02-02T15:45:03.591Z,99.99
2017-02-02T15:50:03.237Z,99.99
2017-02-02T15:55:02.759Z,99.99
2017-02-02T16:00:03.097Z,99.99
2017-02-02T16:05:03.600Z,99.99
2017-02-02T16:10:03.216Z,99.99
2017-02-02T16:15:03.620Z,99.99
2017-02-02T16:20:03.120Z,99.99
2017-02-02T16:25:03.328Z,99.99
2017-02-02T16:30:02.856Z,99.99
2017-02-02T16:35:02.740Z,99.99
2017-02-02T16:40:03.184Z,99.99
2017-02-02T16:45:03.040Z,99.99
2017-02-02T16:50:03.712Z,99.99
2017-02-02T16:55:03.186Z,99.99
2017-02-02T17:00:03.607Z,99.99
2017-02-02T17:05:03.351Z,99.99
2017-02-02T17:10:03.738Z,99.99
2017-02-02T17:15:03.486Z,99.99
2017-02-02T17:20:02.808Z,99.99
2017-02-02T17:25:03.370Z,99.99
2017-02-02T17:30:02.724Z,99.99
2017-02-02T17:35:03.581Z,99.99
2017-02-02T17:40:03.075Z,99.99
2017-02-02T17:45:03.709Z,99.99
2017-02-02T17:50:03.449Z,99.99
2017-02-02T17:55:02.971Z,99.99
2017-02-02T18:00:03.684Z,99.99
2017-02-02T18:05:03.292Z,99.99
2017-02-02T18:10:03.606Z,99.99
2017-02-02T18:15:02.969Z,99.99
2017-02-02T18:20:03.765Z,99.99
2017-02-02T18:25:03.421Z,99.99
2017-02-02T18:30:02.942Z,99.99
2017-02-02T18:35:03.425Z,99.99
2017-02-02T18:40:02.937Z,99.99
2017-02-02T18:45:03.605Z,99.99
2017-02-02T18:50:03.390Z,99.99
2017-02-02T18:55:03.072Z,99.99
2017-02-02T19:00:03.036Z,99.99
2017-02-02T19:05:02.764Z,99.99
2017-02-02T19:10:03.584Z,99.99
2017-02-02T19:15:03.249Z,99.99
2017-02-02T19:20:03.707Z,99.99
2017-02-02T19:25:03.123Z,99.99
2017-02-02T19:30:02.748Z,99.99
2017-02-02T19:35:03.572Z,99.99
2017-02-02T19:40:03.427Z,99.99
2017-02-02T19:45:03.223Z,99.99
2017-02-02T19:50:02.805Z,99.99
2017-02-02T19:55:02.677Z,99.99
2017-02-02T20:00:03.200Z,99.99
2017-02-02T20:05:03.603Z,99.99
2017-02-02T20:10:02.935Z,99.99
2017-02-02T20:15:03.578Z,99.99
2017-02-02T20:20:03.093Z,99.99
2017-02-02T20:25:03.652Z,99.99
2017-02-02T20:30:03.343Z,99.99
2017-02-02T20:35:02.996Z,99.99
2017-02-02T20:40:03.091Z,99.99
2017-02-02T20:45:02.793Z,99.99
2017-02-02T20:50:03.282Z,99.99
2017-02-02T20:55:02.811Z,99.99
2017-02-02T21:00:03.490Z,99.99
2017-02-02T21:05:03.477Z,99.99
2017-02-02T21:10:03.100Z,99.99
2017-02-02T21:15:02.812Z,99.99
2017-02-02T21:20:03.436Z,99.99
2017-02-02T21:25:03.308Z,99.99
2017-02-02T21:30:03.151Z,99.99
2017-02-02T21:35:02.741Z,99.99
2017-02-02T21:40:03.503Z,99.99
2017-02-02T21:45:03.278Z,99.99
2017-02-02T21:50:03.813Z,99.99
2017-02-02T21:55:03.443Z,99.99
2017-02-02T22:00:02.995Z,99.99
2017-02-02T22:05:03.659Z,99.99
2017-02-02T22:10:03.719Z,99.99
2017-02-02T22:15:03.355Z,99.99
2017-02-02T22:20:02.946Z,99.99
2017-02-02T22:25:03.603Z,99.99
2017-02-02T22:30:03.575Z,99.99
2017-02-02T22:35:03.404Z,99.99
2017-02-02T22:40:03.136Z,99.99
2017-02-02T22:45:02.700Z,99.99
2017-02-02T22:50:03.128Z,99.99
2017-02-02T22:55:03.568Z,99.99
2017-02-02T23:00:03.145Z,99.99
2017-02-02T23:05:02.677Z,99.99
2017-02-02T23:10:03.367Z,99.99
2017-02-02T23:15:02.780Z,99.99
2017-02-02T23:20:03.169Z,99.99
2017-02-02T23:25:02.675Z,99.99
2017-02-02T23:30:03.201Z,99.99
2017-02-02T23:35:02.718Z,99.99
2017-02-02T23:40:03.514Z,99.99
2017-02-02T23:45:03.355Z,99.99
2017-02-02T23:50:02.769Z,99.99
2017-02-02T23:55:03.434Z,99.99
